Time;durP1;ratioP1;P1;durP2;ratioP2;P2;SDS_P1;SDS_P2;PMS_P1;PMS_P2;Temp;Humidity;BMP_temperature;BMP_pressure;BME280_temperature;BME280_humidity;BME280_pressure;Samples;Min_cycle;Max_cycle;Signal;HPM_P1;HPM_P2
2021/12/27 00:01:00;;;;;;;3.60;1.90;;;;;;;1.06;100.00;91932.66;2100134;28;20473;-87
2021/12/27 00:02:02;;;;;;;2.30;1.95;;;;;;;1.15;100.00;91932.22;2093914;28;20020;-86
2021/12/27 00:03:04;;;;;;;2.97;1.95;;;;;;;1.15;100.00;91930.34;2094307;28;20845;-85
2021/12/27 00:04:07;;;;;;;2.92;1.88;;;;;;;1.13;100.00;91929.22;2107672;28;20139;-86
2021/12/27 00:05:08;;;;;;;2.10;1.90;;;;;;;1.08;100.00;91932.25;2102484;28;20028;-85
2021/12/27 00:06:10;;;;;;;6.90;2.65;;;;;;;1.06;100.00;91922.13;2101236;28;20497;-86
2021/12/27 00:07:11;;;;;;;2.80;2.15;;;;;;;1.13;100.00;91929.22;2097958;28;20655;-86
2021/12/27 00:08:12;;;;;;;3.03;2.38;;;;;;;1.13;100.00;91926.56;2094350;28;20505;-86
2021/12/27 00:09:13;;;;;;;5.88;2.40;;;;;;;1.13;100.00;91934.47;2097928;28;20461;-87
2021/12/27 00:10:14;;;;;;;2.05;1.88;;;;;;;1.10;100.00;91914.97;2110738;28;20023;-86
2021/12/27 00:11:15;;;;;;;4.93;2.40;;;;;;;1.08;100.00;91927.00;2102382;28;20077;-86
2021/12/27 00:12:16;;;;;;;2.33;2.13;;;;;;;1.11;100.00;91910.44;2104293;28;20177;-85
2021/12/27 00:13:17;;;;;;;3.95;2.70;;;;;;;1.09;100.00;91921.34;2094044;28;20469;-86
2021/12/27 00:14:18;;;;;;;7.30;2.60;;;;;;;1.10;100.00;91924.72;2098047;28;20721;-86
2021/12/27 00:15:20;;;;;;;3.72;2.47;;;;;;;1.13;100.00;91923.94;2097968;28;20016;-86
2021/12/27 00:16:21;;;;;;;5.93;2.67;;;;;;;1.24;100.00;91929.91;2102152;28;20103;-86
2021/12/27 00:17:23;;;;;;;12.57;2.90;;;;;;;1.21;100.00;91925.41;2099852;28;20039;-87
2021/12/27 00:18:24;;;;;;;3.40;2.80;;;;;;;1.25;100.00;91918.97;2096023;28;20033;-86
2021/12/27 00:19:25;;;;;;;3.30;3.00;;;;;;;1.38;100.00;91914.00;2102936;28;20622;-86
2021/12/27 00:20:27;;;;;;;3.22;2.92;;;;;;;1.38;100.00;91915.91;2106337;28;20019;-86
2021/12/27 00:21:28;;;;;;;3.40;3.10;;;;;;;1.38;100.00;91915.91;2098456;28;20138;-86
2021/12/27 00:22:29;;;;;;;34.60;3.20;;;;;;;1.31;100.00;91926.47;2106236;28;20027;-86
2021/12/27 00:23:31;;;;;;;11.55;3.25;;;;;;;1.34;100.00;91920.44;2108763;28;20388;-86
2021/12/27 00:24:50;;;;;;;28.52;3.35;;;;;;;1.32;100.00;91912.94;2120580;27;20503;-87
2021/12/27 00:25:52;;;;;;;4.18;2.90;;;;;;;1.36;100.00;91913.66;2108887;28;20399;-86
2021/12/27 00:26:53;;;;;;;25.60;3.70;;;;;;;1.36;100.00;91913.66;2095725;28;20028;-86
2021/12/27 00:27:53;;;;;;;160.38;5.43;;;;;;;1.51;100.00;91916.94;2101884;28;20040;-86
2021/12/27 00:28:54;;;;;;;18.77;3.35;;;;;;;1.57;100.00;91910.09;2097717;28;20020;-86
2021/12/27 00:29:55;;;;;;;171.95;5.05;;;;;;;1.64;100.00;91909.31;2097989;28;20016;-86
2021/12/27 00:30:58;;;;;;;108.22;4.40;;;;;;;1.54;100.00;91910.91;2095945;28;20031;-85
2021/12/27 00:31:59;;;;;;;50.88;3.03;;;;;;;1.57;100.00;91914.63;2097996;28;20024;-86
2021/12/27 00:33:00;;;;;;;147.10;4.75;;;;;;;1.50;100.00;91902.28;2098804;28;20019;-86
2021/12/27 00:34:00;;;;;;;184.10;4.88;;;;;;;1.51;100.00;91901.13;2106428;28;20016;-86
2021/12/27 00:35:04;;;;;;;185.65;6.93;;;;;;;1.52;100.00;91902.63;2114629;28;20102;-85
2021/12/27 00:36:05;;;;;;;91.25;4.28;;;;;;;1.54;100.00;91894.31;2104571;28;20077;-86
2021/12/27 00:37:08;;;;;;;54.10;3.17;;;;;;;1.49;100.00;91893.63;2097730;28;20118;-85
2021/12/27 00:38:09;;;;;;;105.00;3.92;;;;;;;1.46;100.00;91899.66;2098134;28;20473;-86
2021/12/27 00:39:10;;;;;;;96.57;4.78;;;;;;;1.54;100.00;91899.59;2104014;28;20422;-86
2021/12/27 00:40:12;;;;;;;94.05;3.90;;;;;;;1.45;100.00;91905.31;2100939;28;20027;-86
2021/12/27 00:41:13;;;;;;;129.82;5.05;;;;;;;1.44;100.00;91909.06;2097732;28;20016;-85
2021/12/27 00:42:15;;;;;;;116.75;4.38;;;;;;;1.41;100.00;91905.34;2095729;28;20024;-87
2021/12/27 00:43:18;;;;;;;74.95;3.63;;;;;;;1.39;100.00;91906.84;2104419;27;20497;-87
2021/12/27 00:44:19;;;;;;;98.25;3.90;;;;;;;1.40;100.00;91901.19;2102347;28;20024;-86
2021/12/27 00:45:22;;;;;;;56.40;3.40;;;;;;;1.51;100.00;91904.50;2104006;28;20023;-85
2021/12/27 00:46:23;;;;;;;56.75;3.70;;;;;;;1.49;100.00;91904.16;2105453;28;20030;-87
2021/12/27 00:47:24;;;;;;;158.80;4.85;;;;;;;1.54;100.00;91905.63;2109158;28;20436;-86
2021/12/27 00:48:25;;;;;;;65.82;3.40;;;;;;;1.67;100.00;91906.66;2105327;28;20016;-86
2021/12/27 00:49:27;;;;;;;119.70;4.18;;;;;;;1.63;100.00;91913.09;2099493;28;20660;-86
2021/12/27 00:50:28;;;;;;;108.40;4.03;;;;;;;1.58;100.00;91905.59;2101254;28;20016;-86
2021/12/27 00:51:29;;;;;;;45.22;3.88;;;;;;;1.61;100.00;91902.19;2096173;28;20024;-86
2021/12/27 00:52:32;;;;;;;176.40;5.13;;;;;;;1.57;100.00;91901.47;2097533;28;20723;-86
2021/12/27 00:53:36;;;;;;;69.40;3.22;;;;;;;1.69;100.00;91901.72;2100327;28;20066;-86
2021/12/27 00:54:37;;;;;;;37.88;2.83;;;;;;;1.70;100.00;91903.22;2100137;28;20103;-87
2021/12/27 00:55:38;;;;;;;91.47;3.35;;;;;;;1.75;100.00;91904.69;2097045;28;20026;-85
2021/12/27 00:56:39;;;;;;;47.25;3.05;;;;;;;1.89;100.00;91906.44;2100311;28;20028;-85
2021/12/27 00:57:40;;;;;;;79.78;3.17;;;;;;;1.73;100.00;91902.44;2097245;28;20044;-87
2021/12/27 00:58:41;;;;;;;107.20;5.03;;;;;;;1.73;100.00;91907.72;2097562;28;20115;-86
2021/12/27 00:59:42;;;;;;;107.35;3.28;;;;;;;1.68;100.00;91910.78;2094538;28;20068;-86
2021/12/27 01:00:43;;;;;;;64.63;3.10;;;;;;;1.78;100.00;91914.47;2110497;28;20098;-86
2021/12/27 01:01:44;;;;;;;77.32;3.28;;;;;;;1.82;100.00;91915.19;2110685;28;20011;-85
2021/12/27 01:02:46;;;;;;;76.82;4.03;;;;;;;1.86;100.00;91909.88;2103384;28;20028;-87
2021/12/27 01:03:47;;;;;;;72.57;3.30;;;;;;;1.85;100.00;91913.66;2100089;28;20020;-85
2021/12/27 01:04:48;;;;;;;105.60;3.60;;;;;;;1.91;100.00;91907.56;2101687;28;20133;-85
2021/12/27 01:05:49;;;;;;;78.07;3.65;;;;;;;1.83;100.00;91910.66;2097450;28;20032;-87
2021/12/27 01:06:50;;;;;;;48.00;3.08;;;;;;;1.75;100.00;91908.06;2098112;28;20025;-87
2021/12/27 01:07:55;;;;;;;57.28;3.45;;;;;;;1.68;100.00;91910.78;2110296;28;20012;-87
2021/12/27 01:08:56;;;;;;;34.92;2.65;;;;;;;1.84;100.00;91910.25;2106295;28;20102;-86
2021/12/27 01:14:39;;;;;;;28.83;2.97;;;;;;;1.62;100.00;91904.41;2119303;27;20023;-86
2021/12/27 01:16:51;;;;;;;30.13;3.67;;;;;;;1.61;100.00;91905.56;2110290;27;20055;-86
2021/12/27 01:17:53;;;;;;;27.83;2.35;;;;;;;1.72;100.00;91908.13;2114310;27;20119;-87
2021/12/27 01:18:56;;;;;;;33.42;2.70;;;;;;;1.73;100.00;91905.09;2103642;28;20031;-86
2021/12/27 01:19:57;;;;;;;29.02;2.67;;;;;;;1.76;100.00;91911.47;2104119;28;20146;-86
2021/12/27 01:20:59;;;;;;;26.63;2.85;;;;;;;1.89;100.00;91907.22;2114571;28;20020;-86
2021/12/27 01:22:00;;;;;;;18.58;2.53;;;;;;;1.74;100.00;91903.19;2105730;28;20111;-86
2021/12/27 01:23:01;;;;;;;71.95;3.38;;;;;;;1.72;100.00;91905.50;2097401;28;20078;-87
2021/12/27 01:24:04;;;;;;;41.70;2.65;;;;;;;1.73;100.00;91904.34;2095887;28;20021;-87
2021/12/27 01:25:09;;;;;;;47.03;3.28;;;;;;;1.67;100.00;91903.28;2102547;27;20132;-86
2021/12/27 01:26:11;;;;;;;31.67;2.88;;;;;;;1.66;100.00;91907.78;2106524;28;20023;-87
2021/12/27 01:27:12;;;;;;;53.03;3.03;;;;;;;1.65;100.00;91910.81;2103991;27;20016;-87
2021/12/27 01:28:13;;;;;;;66.93;3.38;;;;;;;1.62;100.00;91914.94;2103743;28;20040;-87
2021/12/27 01:29:14;;;;;;;32.00;2.63;;;;;;;1.60;100.00;91911.97;2106011;28;20073;-86
2021/12/27 01:30:18;;;;;;;8.32;2.47;;;;;;;1.63;100.00;91915.72;2105890;28;20024;-86
2021/12/27 01:31:19;;;;;;;17.23;2.55;;;;;;;1.60;100.00;91908.59;2112598;27;20104;-87
2021/12/27 01:32:22;;;;;;;48.63;2.60;;;;;;;1.57;100.00;91909.34;2112150;28;20383;-87
2021/12/27 01:33:24;;;;;;;24.65;3.05;;;;;;;1.53;100.00;91906.75;2103810;28;20020;-86
2021/12/27 01:34:26;;;;;;;66.28;3.17;;;;;;;1.72;100.00;91905.50;2103796;28;20024;-86
2021/12/27 01:35:27;;;;;;;13.27;2.45;;;;;;;1.66;100.00;91909.66;2103084;28;20051;-87
2021/12/27 01:36:32;;;;;;;40.15;3.03;;;;;;;1.58;100.00;91902.94;2105640;28;20028;-87
2021/12/27 01:37:40;;;;;;;23.15;2.55;;;;;;;1.69;100.00;91908.88;2098553;28;20027;-87
2021/12/27 01:38:41;;;;;;;24.42;2.70;;;;;;;1.64;100.00;91911.94;2098458;28;20452;-86
2021/12/27 01:39:42;;;;;;;60.13;3.35;;;;;;;1.62;100.00;91906.31;2101964;28;20114;-86
2021/12/27 01:40:45;;;;;;;41.72;3.30;;;;;;;1.74;100.00;91908.47;2110239;28;20012;-86
2021/12/27 01:41:46;;;;;;;38.83;3.00;;;;;;;1.66;100.00;91907.78;2109575;28;20031;-87
2021/12/27 01:43:05;;;;;;;49.05;2.90;;;;;;;1.61;100.00;91904.81;2103332;28;20054;-86
2021/12/27 01:44:06;;;;;;;25.48;2.42;;;;;;;1.59;100.00;91907.09;2110779;27;20385;-86
2021/12/27 01:45:09;;;;;;;19.30;2.88;;;;;;;1.55;100.00;91906.38;2103720;28;20032;-87
2021/12/27 01:46:16;;;;;;;78.47;3.30;;;;;;;1.57;100.00;91899.56;2098005;28;20037;-86
2021/12/27 01:47:19;;;;;;;33.10;2.58;;;;;;;1.53;100.00;91904.13;2109670;27;20073;-86
2021/12/27 01:48:23;;;;;;;69.20;3.55;;;;;;;1.56;100.00;91907.88;2103597;28;20037;-87
2021/12/27 01:49:24;;;;;;;72.32;3.35;;;;;;;1.55;100.00;91906.38;2102626;28;20028;-86
2021/12/27 01:50:26;;;;;;;91.07;3.38;;;;;;;1.46;100.00;91899.66;2096115;28;20053;-86
2021/12/27 01:51:29;;;;;;;100.50;5.50;;;;;;;1.48;100.00;91905.28;2100683;28;20031;-86
2021/12/27 01:52:30;;;;;;;66.35;3.20;;;;;;;1.76;100.00;91903.56;2095715;28;20024;-87
2021/12/27 01:53:33;;;;;;;82.47;3.30;;;;;;;1.62;100.00;91906.31;2101583;28;20788;-86
2021/12/27 01:54:40;;;;;;;26.30;2.58;;;;;;;1.72;100.00;91908.88;2107726;28;20062;-86
2021/12/27 01:55:44;;;;;;;106.13;3.50;;;;;;;1.53;100.00;91906.75;2102014;27;20040;-87
2021/12/27 01:56:45;;;;;;;36.17;2.55;;;;;;;1.65;100.00;91901.00;2105903;28;20027;-86
2021/12/27 01:57:47;;;;;;;40.22;2.65;;;;;;;1.63;100.00;91905.94;2101702;28;20012;-86
2021/12/27 01:58:52;;;;;;;117.20;3.80;;;;;;;1.53;100.00;91901.47;2110212;28;20102;-87
2021/12/27 01:59:53;;;;;;;108.97;3.65;;;;;;;1.44;100.00;91911.72;2102537;28;20012;-86
2021/12/27 02:00:56;;;;;;;48.42;2.83;;;;;;;1.65;100.00;91910.81;2099521;28;20009;-86
2021/12/27 02:01:57;;;;;;;18.23;2.15;;;;;;;1.66;100.00;91896.50;2097593;28;20547;-87
2021/12/27 02:02:58;;;;;;;123.20;3.97;;;;;;;1.54;100.00;91895.09;2099626;28;20024;-87
2021/12/27 02:03:59;;;;;;;46.17;2.92;;;;;;;1.57;100.00;91899.56;2099118;28;20055;-86
2021/12/27 02:05:00;;;;;;;57.05;2.90;;;;;;;1.50;100.00;91899.66;2107409;28;20350;-86
2021/12/27 02:06:01;;;;;;;51.75;2.75;;;;;;;1.53;100.00;91893.56;2102320;28;20022;-86
2021/12/27 02:07:02;;;;;;;11.25;1.80;;;;;;;1.49;100.00;91895.50;2101118;28;20020;-88
2021/12/27 02:10:01;;;;;;;;;;;;;;;1.46;100.00;91886.50;2141950;27;20513;-87
2021/12/27 02:11:04;;;;;;;20.30;2.20;;;;;;;1.57;100.00;91894.31;2113297;28;19973;-86
2021/12/27 02:12:05;;;;;;;54.95;2.90;;;;;;;1.55;100.00;91886.06;2098792;28;20571;-86
2021/12/27 02:13:07;;;;;;;99.93;3.63;;;;;;;1.51;100.00;91891.34;2104948;28;20448;-85
2021/12/27 02:14:08;;;;;;;62.45;3.10;;;;;;;1.54;100.00;91889.06;2104656;28;20026;-86
2021/12/27 02:15:14;;;;;;;49.28;3.00;;;;;;;1.53;100.00;91893.56;2098655;28;20027;-86
2021/12/27 02:16:20;;;;;;;66.60;4.53;;;;;;;1.51;100.00;91893.22;2109264;27;20491;-86
2021/12/27 02:17:21;;;;;;;26.45;3.05;;;;;;;1.50;100.00;91881.97;2113400;28;20047;-86
2021/12/27 02:18:22;;;;;;;7.63;2.25;;;;;;;1.48;100.00;91896.63;2104729;28;20156;-86
2021/12/27 02:19:35;;;;;;;2.70;2.50;;;;;;;1.55;100.00;91893.22;2098125;28;20059;-85
2021/12/27 02:20:38;;;;;;;5.90;2.63;;;;;;;1.60;100.00;91890.16;2099365;28;20103;-86
2021/12/27 02:21:40;;;;;;;3.72;2.83;;;;;;;1.61;100.00;91883.75;2097177;28;20090;-85
2021/12/27 02:22:40;;;;;;;3.20;2.90;;;;;;;1.57;100.00;91888.28;2100178;28;20086;-85
2021/12/27 02:23:42;;;;;;;2.85;2.65;;;;;;;1.58;100.00;91882.66;2113005;27;20043;-87
2021/12/27 02:24:43;;;;;;;3.67;3.05;;;;;;;1.56;100.00;91886.81;2112889;28;20023;-86
2021/12/27 02:25:47;;;;;;;3.05;2.83;;;;;;;1.58;100.00;91885.28;2101690;28;20059;-86
2021/12/27 02:26:50;;;;;;;7.72;3.28;;;;;;;1.64;100.00;91885.59;2099116;28;20025;-85
2021/12/27 02:27:52;;;;;;;3.90;3.20;;;;;;;1.68;100.00;91881.81;2099240;28;20045;-86
2021/12/27 02:28:53;;;;;;;3.58;3.28;;;;;;;1.69;100.00;91880.66;2102023;28;20409;-86
2021/12/27 02:29:54;;;;;;;3.25;2.95;;;;;;;1.64;100.00;91875.06;2104823;28;20107;-86
2021/12/27 02:30:55;;;;;;;3.45;3.10;;;;;;;1.73;100.00;91878.00;2109260;28;20024;-86
2021/12/27 02:31:56;;;;;;;3.85;2.88;;;;;;;1.63;100.00;91874.34;2104784;28;20027;-86
2021/12/27 02:33:00;;;;;;;3.67;2.97;;;;;;;1.64;100.00;91885.59;2107268;28;20380;-86
2021/12/27 02:34:01;;;;;;;2.63;2.42;;;;;;;1.57;100.00;91878.50;2097792;28;20025;-86
2021/12/27 02:35:03;;;;;;;2.92;2.72;;;;;;;1.60;100.00;91882.25;2107163;28;20024;-86
2021/12/27 02:36:05;;;;;;;2.83;2.63;;;;;;;1.60;100.00;91883.00;2108590;28;20062;-85
2021/12/27 02:37:06;;;;;;;3.78;2.90;;;;;;;1.64;100.00;91881.09;2111812;27;20083;-85
2021/12/27 02:38:10;;;;;;;3.03;2.10;;;;;;;1.66;100.00;91886.69;2120954;28;20877;-85
2021/12/27 02:39:11;;;;;;;3.00;2.80;;;;;;;1.64;100.00;91881.09;2104745;28;20023;-85
2021/12/27 02:40:21;;;;;;;3.40;3.10;;;;;;;1.76;100.00;91877.97;2106100;28;20444;-85
2021/12/27 02:41:22;;;;;;;3.42;2.95;;;;;;;1.71;100.00;91872.34;2104970;28;20027;-86
2021/12/27 02:42:23;;;;;;;3.30;3.00;;;;;;;1.70;100.00;91876.13;2114635;28;20391;-86
2021/12/27 02:43:30;;;;;;;3.33;3.03;;;;;;;1.76;100.00;91877.97;2113156;28;20047;-86
2021/12/27 02:44:34;;;;;;;3.00;2.70;;;;;;;1.81;100.00;91876.06;2101906;28;20023;-86
2021/12/27 02:45:41;;;;;;;2.95;2.70;;;;;;;1.77;100.00;91882.09;2098772;28;20012;-85
2021/12/27 02:46:52;;;;;;;3.17;2.88;;;;;;;1.83;100.00;91877.16;2108186;28;20026;-86
2021/12/27 02:47:53;;;;;;;2.80;2.45;;;;;;;1.88;100.00;91887.25;2100085;28;20039;-85
2021/12/27 02:48:54;;;;;;;3.00;2.80;;;;;;;1.80;100.00;91879.81;2095452;28;20039;-84
2021/12/27 02:49:55;;;;;;;3.70;3.20;;;;;;;1.77;100.00;91886.63;2101922;28;20063;-85
2021/12/27 02:50:56;;;;;;;3.92;3.20;;;;;;;1.77;100.00;91878.72;2111216;28;20034;-85
2021/12/27 02:51:57;;;;;;;3.33;2.78;;;;;;;1.83;100.00;91884.31;2107224;28;20024;-86
2021/12/27 02:52:59;;;;;;;3.20;2.92;;;;;;;1.78;100.00;91874.94;2098701;28;20016;-84
2021/12/27 02:54:00;;;;;;;3.20;2.90;;;;;;;1.82;100.00;91878.28;2104251;28;20016;-85
2021/12/27 02:55:01;;;;;;;3.30;3.00;;;;;;;1.79;100.00;91873.78;2103548;28;20047;-85
2021/12/27 02:56:06;;;;;;;2.75;2.55;;;;;;;1.74;100.00;91877.59;2106047;28;20020;-85
2021/12/27 02:57:09;;;;;;;3.13;2.90;;;;;;;1.75;100.00;91873.81;2105004;28;20068;-85
2021/12/27 02:58:10;;;;;;;2.90;2.70;;;;;;;1.77;100.00;91878.72;2104307;28;20738;-85
2021/12/27 02:59:11;;;;;;;2.70;2.50;;;;;;;1.84;100.00;91883.91;2102850;28;20059;-85
2021/12/27 03:00:32;;;;;;;2.55;2.35;;;;;;;1.80;100.00;91880.59;2112586;27;20063;-86
2021/12/27 03:01:39;;;;;;;3.00;2.80;;;;;;;1.86;100.00;91871.09;2116412;28;20122;-85
2021/12/27 03:02:40;;;;;;;3.22;2.92;;;;;;;1.92;100.00;91874.81;2119361;27;20049;-85
2021/12/27 03:03:41;;;;;;;2.92;2.58;;;;;;;1.86;100.00;91873.75;2110187;28;20020;-85
2021/12/27 03:04:45;;;;;;;3.38;3.08;;;;;;;1.83;100.00;91885.06;2101093;28;20016;-85
2021/12/27 03:05:51;;;;;;;3.55;3.25;;;;;;;1.82;100.00;91882.81;2102477;28;20016;-85
2021/12/27 03:06:55;;;;;;;5.03;2.60;;;;;;;1.85;100.00;91880.16;2103160;28;20396;-86
2021/12/27 03:07:57;;;;;;;4.72;2.78;;;;;;;1.82;100.00;91872.28;2108789;28;20517;-85
2021/12/27 03:08:58;;;;;;;3.00;2.70;;;;;;;1.85;100.00;91877.53;2108189;28;20024;-85
2021/12/27 03:09:59;;;;;;;3.30;2.58;;;;;;;1.83;100.00;91884.31;2100927;28;20364;-85
2021/12/27 03:11:02;;;;;;;2.42;2.22;;;;;;;1.88;100.00;91876.72;2095670;28;20097;-85
2021/12/27 03:12:04;;;;;;;3.53;2.20;;;;;;;1.86;100.00;91883.53;2096002;28;20048;-85
2021/12/27 03:13:05;;;;;;;6.88;2.38;;;;;;;1.86;100.00;91879.00;2104124;28;20116;-85
2021/12/27 03:14:06;;;;;;;2.35;2.13;;;;;;;1.86;100.00;91878.25;2110312;28;20023;-86
2021/12/27 03:15:09;;;;;;;2.85;1.98;;;;;;;1.88;100.00;91874.09;2106136;28;20081;-84
2021/12/27 03:16:13;;;;;;;2.50;2.30;;;;;;;1.91;100.00;91880.47;2096061;28;20029;-86
2021/12/27 03:17:14;;;;;;;3.22;2.22;;;;;;;1.91;100.00;91869.94;2106422;28;20024;-85
2021/12/27 03:18:21;;;;;;;1.92;1.83;;;;;;;1.93;100.00;91875.53;2097741;28;20028;-85
2021/12/27 03:19:25;;;;;;;2.33;2.13;;;;;;;1.87;100.00;91861.31;2101741;28;20031;-85
2021/12/27 03:20:29;;;;;;;2.20;2.00;;;;;;;1.84;100.00;91868.09;2111459;28;20440;-85
2021/12/27 03:21:33;;;;;;;2.25;2.03;;;;;;;1.88;100.00;91863.53;2102277;27;20020;-85
2021/12/27 03:22:37;;;;;;;2.28;2.08;;;;;;;2.09;100.00;91861.84;2101207;28;20020;-85
2021/12/27 03:23:40;;;;;;;2.03;1.92;;;;;;;1.98;100.00;91859.34;2102905;28;20103;-86
2021/12/27 03:24:40;;;;;;;2.05;1.95;;;;;;;1.95;100.00;91860.09;2101788;27;20051;-85
2021/12/27 03:25:42;;;;;;;1.98;1.83;;;;;;;1.91;100.00;91862.78;2099584;28;20021;-85
2021/12/27 03:26:43;;;;;;;1.90;1.80;;;;;;;1.93;100.00;91854.47;2098454;28;20028;-86
2021/12/27 03:27:45;;;;;;;1.80;1.70;;;;;;;1.88;100.00;91858.28;2098586;28;20473;-85
2021/12/27 03:28:47;;;;;;;2.70;2.10;;;;;;;2.05;100.00;91850.59;2111032;28;20752;-85
2021/12/27 03:29:48;;;;;;;2.35;2.15;;;;;;;2.07;100.00;91848.31;2098465;28;20025;-84
2021/12/27 03:30:50;;;;;;;2.08;1.98;;;;;;;1.99;100.00;91858.19;2096324;28;20102;-85
2021/12/27 03:31:54;;;;;;;2.33;2.13;;;;;;;1.95;100.00;91858.22;2096267;28;20107;-85
2021/12/27 03:32:55;;;;;;;1.88;1.77;;;;;;;1.97;100.00;91852.53;2096608;28;20029;-88
2021/12/27 03:33:59;;;;;;;3.47;2.17;;;;;;;1.91;100.00;91848.84;2091055;28;20048;-85
2021/12/27 03:35:13;;;;;;;1.92;1.77;;;;;;;2.04;100.00;91852.47;2099266;28;20035;-84
2021/12/27 03:36:14;;;;;;;6.53;2.03;;;;;;;2.06;100.00;91849.44;2096055;28;20068;-84
2021/12/27 03:37:15;;;;;;;2.67;2.40;;;;;;;2.11;100.00;91841.88;2090788;28;20680;-85
2021/12/27 03:38:15;;;;;;;2.55;2.35;;;;;;;2.14;100.00;91845.59;2102532;28;20078;-85
2021/12/27 03:39:20;;;;;;;2.28;2.08;;;;;;;2.08;100.00;91845.28;2090468;28;20055;-85
2021/12/27 03:40:25;;;;;;;3.00;2.70;;;;;;;2.10;100.00;91844.88;2089264;28;20017;-85
2021/12/27 03:41:26;;;;;;;2.50;2.30;;;;;;;2.11;100.00;91854.28;2098017;28;20025;-85
2021/12/27 03:42:50;;;;;;;2.85;2.38;;;;;;;2.04;100.00;91846.47;2100469;28;20020;-85
2021/12/27 03:43:51;;;;;;;2.53;2.33;;;;;;;2.03;100.00;91855.53;2100661;28;20016;-87
2021/12/27 03:44:52;;;;;;;2.60;2.40;;;;;;;2.06;100.00;91854.72;2100004;28;20020;-86
2021/12/27 03:45:53;;;;;;;3.10;2.25;;;;;;;2.03;100.00;91848.34;2092030;28;20024;-86
2021/12/27 03:46:57;;;;;;;2.70;2.10;;;;;;;2.02;100.00;91849.50;2098218;28;20012;-87
2021/12/27 03:47:59;;;;;;;2.88;2.08;;;;;;;2.00;100.00;91855.16;2098756;28;20028;-87
2021/12/27 03:49:04;;;;;;;2.42;2.22;;;;;;;1.96;100.00;91851.06;2090352;28;20055;-87
2021/12/27 03:50:11;;;;;;;1.92;1.80;;;;;;;2.07;100.00;91850.97;2088741;28;20039;-88
2021/12/27 03:51:18;;;;;;;2.63;2.20;;;;;;;2.15;100.00;91847.09;2091659;28;20140;-87
2021/12/27 03:52:25;;;;;;;2.30;2.10;;;;;;;2.04;100.00;91846.47;2101992;28;20021;-87
2021/12/27 03:53:26;;;;;;;1.30;1.20;;;;;;;2.04;100.00;91847.22;2105034;28;20492;-87
2021/12/27 03:54:28;;;;;;;1.98;1.83;;;;;;;1.98;100.00;91852.16;2091959;28;20024;-87
2021/12/27 03:55:31;;;;;;;2.60;2.40;;;;;;;2.02;100.00;91852.16;2098500;28;20024;-87
2021/12/27 03:56:34;;;;;;;2.35;2.10;;;;;;;1.99;100.00;91842.38;2102869;28;20035;-87
2021/12/27 03:57:38;;;;;;;3.75;2.05;;;;;;;1.98;100.00;91844.28;2089990;28;20031;-87
2021/12/27 03:58:56;;;;;;;2.03;1.83;;;;;;;2.07;100.00;91840.41;2090903;28;20057;-87
2021/12/27 04:01:20;;;;;;;2.30;2.10;;;;;;;1.92;100.00;91834.53;2108853;28;20024;-88
2021/12/27 04:02:22;;;;;;;2.60;2.40;;;;;;;1.97;100.00;91842.75;2106296;28;20020;-87
2021/12/27 04:03:23;;;;;;;2.17;1.98;;;;;;;1.92;100.00;91842.44;2086286;28;20036;-87
2021/12/27 04:04:25;;;;;;;2.75;2.30;;;;;;;2.13;100.00;91838.84;2089725;28;20021;-88
2021/12/27 04:05:26;;;;;;;2.22;2.08;;;;;;;2.05;100.00;91837.41;2091581;28;20131;-87
2021/12/27 04:06:28;;;;;;;2.47;2.28;;;;;;;1.91;100.00;91836.44;2098598;28;20508;-87
2021/12/27 04:07:33;;;;;;;3.58;2.25;;;;;;;1.83;100.00;91828.97;2100274;28;20493;-87
2021/12/27 04:08:34;;;;;;;2.35;2.17;;;;;;;1.83;100.00;91831.63;2099310;28;20028;-86
2021/12/27 04:09:36;;;;;;;2.22;2.08;;;;;;;1.75;100.00;91833.56;2108148;28;20124;-87
2021/12/27 04:10:39;;;;;;;1.88;1.77;;;;;;;1.79;100.00;91836.19;2098154;28;20021;-87
2021/12/27 04:11:40;;;;;;;2.25;2.05;;;;;;;1.79;100.00;91836.91;2090170;28;20438;-87
2021/12/27 04:12:41;;;;;;;2.45;2.25;;;;;;;1.83;100.00;91837.63;2098021;28;20040;-87
2021/12/27 04:13:42;;;;;;;2.47;2.10;;;;;;;1.92;100.00;91835.28;2100312;28;20500;-87
2021/12/27 04:14:43;;;;;;;2.22;2.03;;;;;;;1.89;100.00;91844.00;2108521;28;20482;-88
2021/12/27 04:15:45;;;;;;;2.78;2.13;;;;;;;1.81;100.00;91839.94;2109508;28;20074;-87
2021/12/27 04:16:46;;;;;;;10.18;2.40;;;;;;;1.72;100.00;91837.00;2104271;28;20020;-87
2021/12/27 04:17:47;;;;;;;2.92;2.72;;;;;;;1.77;100.00;91833.94;2094222;28;20020;-88
2021/12/27 04:18:48;;;;;;;7.53;2.05;;;;;;;1.77;100.00;91832.06;2097589;28;20961;-88
2021/12/27 04:19:49;;;;;;;3.42;2.17;;;;;;;1.71;100.00;91840.75;2089721;28;20021;-86
2021/12/27 04:20:50;;;;;;;3.75;2.40;;;;;;;1.85;100.00;91840.63;2089869;28;20433;-87
2021/12/27 04:21:51;;;;;;;11.02;2.58;;;;;;;1.72;100.00;91834.38;2091998;28;20021;-88
2021/12/27 04:22:52;;;;;;;3.85;2.15;;;;;;;1.74;100.00;91832.81;2089466;28;20067;-87
2021/12/27 04:23:53;;;;;;;2.20;2.00;;;;;;;1.71;100.00;91835.50;2089832;28;20440;-87
2021/12/27 04:24:54;;;;;;;1.95;1.85;;;;;;;1.70;100.00;91834.00;2093734;28;20074;-88
2021/12/27 04:25:55;;;;;;;5.35;2.00;;;;;;;1.64;100.00;91832.94;2092263;28;20025;-87
2021/12/27 04:26:56;;;;;;;2.13;2.00;;;;;;;1.67;100.00;91830.28;2107627;28;20464;-87
2021/12/27 04:27:58;;;;;;;2.10;1.90;;;;;;;1.66;100.00;91828.75;2096727;28;20016;-86
2021/12/27 04:28:59;;;;;;;17.13;1.90;;;;;;;1.60;100.00;91826.94;2101814;28;20024;-87
2021/12/27 04:30:00;;;;;;;6.25;1.80;;;;;;;1.60;100.00;91829.59;2107681;28;20121;-87
2021/12/27 04:31:01;;;;;;;3.17;1.90;;;;;;;1.60;100.00;91830.34;2089532;28;20106;-86
2021/12/27 04:32:03;;;;;;;5.07;2.17;;;;;;;1.59;100.00;91839.38;2099530;28;20560;-87
2021/12/27 04:33:05;;;;;;;6.70;1.80;;;;;;;1.56;100.00;91828.88;2088872;28;20146;-87
2021/12/27 04:34:06;;;;;;;5.82;1.80;;;;;;;1.58;100.00;91837.13;2094057;28;20051;-87
2021/12/27 04:35:09;;;;;;;4.03;2.00;;;;;;;1.59;100.00;91834.09;2097628;28;20409;-87
2021/12/27 04:36:10;;;;;;;3.33;1.65;;;;;;;1.63;100.00;91828.81;2097873;28;20031;-87
2021/12/27 04:37:11;;;;;;;8.52;2.10;;;;;;;1.61;100.00;91831.81;2104834;28;20020;-88
2021/12/27 04:38:12;;;;;;;5.90;1.70;;;;;;;1.62;100.00;91837.84;2114487;28;20058;-88
2021/12/27 04:39:13;;;;;;;16.08;4.45;;;;;;;1.56;100.00;91826.97;2106039;28;20024;-88
2021/12/27 04:40:17;;;;;;;10.57;3.40;;;;;;;1.59;100.00;91831.47;2102153;28;20069;-87
2021/12/27 04:41:21;;;;;;;20.33;4.50;;;;;;;1.63;100.00;91824.28;2093719;28;20021;-88
2021/12/27 04:42:23;;;;;;;8.93;2.83;;;;;;;1.66;100.00;91828.75;2100958;28;20031;-87
2021/12/27 04:43:24;;;;;;;14.43;3.25;;;;;;;1.68;100.00;91820.50;2093117;28;20119;-88
2021/12/27 04:44:25;;;;;;;9.55;2.72;;;;;;;1.68;100.00;91829.13;2089708;28;20053;-87
2021/12/27 04:45:26;;;;;;;4.97;2.72;;;;;;;1.71;100.00;91832.84;2090030;28;20556;-87
2021/12/27 04:46:27;;;;;;;11.45;2.60;;;;;;;1.68;100.00;91817.84;2091452;28;20053;-88
2021/12/27 04:47:28;;;;;;;8.40;2.10;;;;;;;1.71;100.00;91824.94;2090440;28;20052;-87
2021/12/27 04:48:29;;;;;;;17.40;2.08;;;;;;;1.73;100.00;91828.69;2089408;28;20024;-87
2021/12/27 04:49:30;;;;;;;7.10;2.65;;;;;;;1.69;100.00;91827.25;2101229;28;20035;-88
2021/12/27 04:50:31;;;;;;;9.70;2.13;;;;;;;1.71;100.00;91827.59;2089479;28;20025;-86
2021/12/27 04:51:32;;;;;;;26.40;2.00;;;;;;;1.65;100.00;91826.53;2089863;28;20028;-87
2021/12/27 04:52:33;;;;;;;19.77;1.80;;;;;;;1.64;100.00;91830.31;2097625;28;20112;-87
2021/12/27 04:53:34;;;;;;;51.15;2.50;;;;;;;1.63;100.00;91820.91;2091453;28;20162;-88
2021/12/27 04:54:37;;;;;;;35.95;2.65;;;;;;;1.69;100.00;91820.09;2099579;28;20099;-86
2021/12/27 04:55:44;;;;;;;48.05;3.20;;;;;;;1.65;100.00;91823.91;2098157;28;20074;-88
2021/12/27 04:56:47;;;;;;;6.80;1.70;;;;;;;1.68;100.00;91817.84;2099853;28;20103;-86
2021/12/27 04:57:49;;;;;;;30.15;2.13;;;;;;;1.72;100.00;91808.03;2099656;28;20032;-87
2021/12/27 04:58:52;;;;;;;9.95;2.10;;;;;;;1.72;100.00;91815.94;2095653;28;20028;-87
2021/12/27 04:59:53;;;;;;;32.80;2.13;;;;;;;1.84;100.00;91820.69;2104678;28;20022;-86
2021/12/27 05:00:55;;;;;;;23.52;1.83;;;;;;;2.03;100.00;91814.09;2102305;28;20025;-88
2021/12/27 05:01:56;;;;;;;13.90;2.10;;;;;;;1.89;100.00;91814.22;2089252;28;20021;-88